Time;durP1;ratioP1;P1;durP2;ratioP2;P2;SDS_P1;SDS_P2;PMS_P1;PMS_P2;Temp;Humidity;BMP_temperature;BMP_pressure;BME280_temperature;BME280_humidity;BME280_pressure;Samples;Min_cycle;Max_cycle;Signal;HPM_P1;HPM_P2
2022/10/12 00:01:34;;;;;;;22.30;14.50;;;;;;;10.45;100.00;96953.69;5052903;28;20328;-77
2022/10/12 00:03:59;;;;;;;18.77;15.10;;;;;;;10.44;100.00;96959.94;5071345;28;20435;-77
2022/10/12 00:06:25;;;;;;;20.37;14.40;;;;;;;10.43;100.00;96963.53;5067917;28;20032;-77
2022/10/12 00:08:52;;;;;;;26.93;15.33;;;;;;;10.46;100.00;96971.16;5070835;28;20036;-77
2022/10/12 00:11:26;;;;;;;24.83;15.67;;;;;;;10.48;100.00;96960.47;5060540;28;20035;-77
2022/10/12 00:13:52;;;;;;;20.57;14.60;;;;;;;10.41;100.00;96962.00;5064677;28;20774;-77
2022/10/12 00:16:20;;;;;;;23.07;14.87;;;;;;;10.36;100.00;96960.66;5071667;28;20024;-77
2022/10/12 00:18:54;;;;;;;21.93;15.53;;;;;;;10.37;100.00;96961.47;5062372;28;20083;-78
2022/10/12 00:21:20;;;;;;;23.77;15.97;;;;;;;10.33;100.00;96954.84;5066126;28;20107;-77
2022/10/12 00:23:46;;;;;;;22.77;14.53;;;;;;;10.34;100.00;96957.31;5072122;28;20028;-78
2022/10/12 00:26:22;;;;;;;22.23;14.30;;;;;;;10.34;100.00;96956.50;5053524;28;20036;-77
2022/10/12 00:28:52;;;;;;;18.77;14.50;;;;;;;10.37;100.00;96962.28;5067098;28;20635;-78
2022/10/12 00:31:19;;;;;;;19.80;14.00;;;;;;;10.36;100.00;96954.53;5066761;28;20021;-77
2022/10/12 00:33:46;;;;;;;21.47;13.53;;;;;;;10.35;100.00;96952.88;5071649;28;20024;-78
2022/10/12 00:36:23;;;;;;;21.77;13.93;;;;;;;10.28;100.00;96942.09;5068847;28;20044;-77
2022/10/12 00:38:51;;;;;;;21.43;14.67;;;;;;;10.24;100.00;96948.56;5070509;28;20040;-78
2022/10/12 00:41:19;;;;;;;24.23;15.33;;;;;;;10.26;100.00;96943.19;5065649;28;20032;-78
2022/10/12 00:43:46;;;;;;;24.07;14.93;;;;;;;10.22;100.00;96947.03;5061303;28;20032;-77
2022/10/12 00:46:22;;;;;;;20.77;13.93;;;;;;;10.25;100.00;96952.03;5064763;28;20021;-77
2022/10/12 00:48:55;;;;;;;18.57;13.90;;;;;;;10.23;100.00;96949.56;5072011;28;20518;-76
2022/10/12 00:51:22;;;;;;;26.05;14.88;;;;;;;10.21;100.00;96945.41;5072656;28;20033;-78
2022/10/12 00:53:55;;;;;;;24.67;14.13;;;;;;;10.18;100.00;96948.28;5063826;28;20051;-77
2022/10/12 00:56:25;;;;;;;23.77;15.57;;;;;;;10.15;100.00;96942.34;5067792;28;20032;-77
2022/10/12 00:58:53;;;;;;;23.43;15.30;;;;;;;10.09;100.00;96935.03;5067593;28;20045;-77
2022/10/12 01:01:20;;;;;;;21.93;15.30;;;;;;;10.18;100.00;96940.41;5066479;28;20036;-77
2022/10/12 01:03:47;;;;;;;19.23;14.23;;;;;;;10.14;100.00;96938.06;5060254;28;20101;-77
2022/10/12 01:06:13;;;;;;;22.17;14.60;;;;;;;10.18;100.00;96943.03;5077552;28;20406;-77
2022/10/12 01:08:38;;;;;;;59.53;44.73;;;;;;;10.15;100.00;96938.88;5062328;28;20036;-77
2022/10/12 01:11:04;;;;;;;27.27;17.07;;;;;;;10.08;100.00;96930.72;5065128;28;20043;-77
2022/10/12 01:13:32;;;;;;;30.53;16.37;;;;;;;10.03;100.00;96938.22;5050519;28;20041;-78
2022/10/12 01:16:23;;;;;;;21.10;15.30;;;;;;;10.06;100.00;96935.31;5053829;28;20446;-77
2022/10/12 01:19:17;;;;;;;25.03;16.20;;;;;;;9.96;100.00;96931.84;5073136;28;20127;-78
2022/10/12 01:22:01;;;;;;;23.33;15.57;;;;;;;9.97;100.00;96935.31;5073383;28;20047;-77
2022/10/12 01:24:53;;;;;;;27.27;16.77;;;;;;;9.93;100.00;96931.31;5056477;28;20054;-77
2022/10/12 01:27:40;;;;;;;29.47;16.43;;;;;;;9.85;100.00;96932.78;5069836;28;20037;-77
2022/10/12 01:30:15;;;;;;;25.67;16.23;;;;;;;9.91;100.00;96934.06;5068409;28;20032;-77
2022/10/12 01:33:22;;;;;;;24.13;16.33;;;;;;;9.91;100.00;96937.50;5063619;28;20040;-77
2022/10/12 01:35:53;;;;;;;23.97;15.97;;;;;;;9.85;100.00;96935.41;5024192;28;20033;-78
2022/10/12 01:38:50;;;;;;;24.70;15.87;;;;;;;9.85;100.00;96934.59;5056180;28;20044;-77
2022/10/12 01:41:25;;;;;;;21.80;16.07;;;;;;;9.84;100.00;96938.19;5060693;28;20446;-78
2022/10/12 01:43:51;;;;;;;24.33;17.67;;;;;;;9.83;100.00;96928.66;5071325;28;20048;-77
2022/10/12 01:46:17;;;;;;;22.97;16.53;;;;;;;9.77;100.00;96923.97;5071587;28;20040;-77
2022/10/12 01:48:46;;;;;;;30.13;17.37;;;;;;;9.81;100.00;96927.97;5064421;28;20042;-77
2022/10/12 01:51:22;;;;;;;25.73;15.93;;;;;;;9.70;100.00;96928.09;5067878;28;20099;-78
2022/10/12 01:53:54;;;;;;;26.73;16.33;;;;;;;9.68;100.00;96925.59;5061849;28;20644;-78
2022/10/12 01:56:35;;;;;;;22.20;16.63;;;;;;;9.70;100.00;96925.47;5070334;28;20119;-77
2022/10/12 01:59:07;;;;;;;21.63;15.67;;;;;;;9.68;100.00;96923.78;5071249;28;20074;-78
2022/10/12 02:01:42;;;;;;;27.17;19.40;;;;;;;9.72;100.00;96923.53;5071280;28;20037;-77
2022/10/12 02:04:16;;;;;;;27.10;17.07;;;;;;;9.68;100.00;96929.03;5068627;28;20779;-77
2022/10/12 02:06:52;;;;;;;23.63;17.13;;;;;;;9.66;100.00;96923.13;5069798;28;20025;-77
2022/10/12 02:09:28;;;;;;;26.00;17.40;;;;;;;9.66;100.00;96925.75;5067717;28;20082;-77
2022/10/12 02:11:59;;;;;;;24.20;16.33;;;;;;;9.64;100.00;96922.41;5065557;28;20036;-77
2022/10/12 02:14:31;;;;;;;29.37;17.40;;;;;;;9.67;100.00;96919.53;5071666;28;20082;-77
2022/10/12 02:16:59;;;;;;;26.97;16.00;;;;;;;9.64;100.00;96921.59;5081612;28;20064;-77
2022/10/12 02:19:29;;;;;;;25.40;17.33;;;;;;;9.63;100.00;96917.31;5068553;28;20035;-77
2022/10/12 02:22:00;;;;;;;23.60;16.37;;;;;;;9.68;100.00;96918.53;5075103;28;20040;-77
2022/10/12 02:24:29;;;;;;;26.23;16.90;;;;;;;9.59;100.00;96916.75;5061267;28;20033;-77
2022/10/12 02:26:56;;;;;;;27.80;18.23;;;;;;;9.62;100.00;96916.50;5061566;28;21309;-77
2022/10/12 02:29:34;;;;;;;24.90;17.73;;;;;;;9.62;100.00;96913.00;5067722;28;20043;-77
2022/10/12 02:32:12;;;;;;;26.03;17.00;;;;;;;9.60;100.00;96910.53;5074678;28;20028;-77
2022/10/12 02:34:54;;;;;;;31.20;18.33;;;;;;;9.66;100.00;96911.78;5064750;28;20096;-77
2022/10/12 02:37:22;;;;;;;23.63;17.93;;;;;;;9.63;100.00;96904.19;5072407;28;20098;-77
2022/10/12 02:40:03;;;;;;;27.80;18.70;;;;;;;9.56;100.00;96903.06;5072571;28;20028;-77
2022/10/12 02:42:33;;;;;;;29.67;19.13;;;;;;;9.54;100.00;96899.75;5070069;28;20028;-77
2022/10/12 02:45:04;;;;;;;26.90;19.27;;;;;;;9.56;100.00;96903.06;5072804;28;20807;-77
2022/10/12 02:47:32;;;;;;;26.97;18.53;;;;;;;9.59;100.00;96897.53;5070618;28;20024;-77
2022/10/12 02:49:59;;;;;;;26.57;18.50;;;;;;;9.55;100.00;96899.59;5053190;28;20039;-77
2022/10/12 02:52:25;;;;;;;32.90;20.47;;;;;;;9.58;100.00;96895.88;5069360;28;20042;-77
2022/10/12 02:54:51;;;;;;;26.93;18.83;;;;;;;9.52;100.00;96899.03;5073716;28;20060;-76
2022/10/12 02:57:17;;;;;;;29.37;19.77;;;;;;;9.44;100.00;96886.59;5074946;28;20028;-77
2022/10/12 02:59:43;;;;;;;26.00;18.07;;;;;;;9.47;100.00;96885.50;5075686;28;20029;-77
2022/10/12 03:02:09;;;;;;;28.23;18.83;;;;;;;9.43;100.00;96892.81;5071324;28;20435;-78
2022/10/12 03:04:36;;;;;;;31.20;20.50;;;;;;;9.40;100.00;96893.09;5052239;28;20033;-77
2022/10/12 03:07:02;;;;;;;29.97;18.87;;;;;;;9.35;100.00;96893.47;5066400;28;20033;-76
2022/10/12 03:09:28;;;;;;;29.47;20.73;;;;;;;9.38;100.00;96893.22;5072181;28;20032;-77
2022/10/12 03:11:53;;;;;;;29.20;20.20;;;;;;;9.36;100.00;96891.72;5071253;28;20124;-77
2022/10/12 03:14:20;;;;;;;31.00;20.67;;;;;;;9.32;100.00;96890.31;5054377;28;20612;-77
2022/10/12 03:16:47;;;;;;;29.07;20.17;;;;;;;9.27;100.00;96897.75;5071210;28;20054;-77
2022/10/12 03:19:13;;;;;;;29.40;20.40;;;;;;;9.31;100.00;96901.78;5060202;28;20028;-77
2022/10/12 03:21:38;;;;;;;33.03;22.67;;;;;;;9.31;100.00;96902.59;5069988;28;20123;-77
2022/10/12 03:24:04;;;;;;;29.53;21.47;;;;;;;9.28;100.00;96899.41;5052506;28;20119;-76
2022/10/12 03:26:30;;;;;;;26.40;20.03;;;;;;;9.27;100.00;96897.75;5072992;28;20024;-77
2022/10/12 03:28:55;;;;;;;33.10;20.97;;;;;;;9.26;100.00;96896.13;5071452;28;20815;-77
2022/10/12 03:31:21;;;;;;;26.13;18.83;;;;;;;9.23;100.00;96904.25;5058275;28;20021;-77
2022/10/12 03:33:47;;;;;;;25.20;19.50;;;;;;;9.19;100.00;96907.16;5069135;28;20036;-77
2022/10/12 03:36:13;;;;;;;28.37;18.40;;;;;;;9.14;100.00;96905.88;5065138;28;20033;-77
2022/10/12 03:38:38;;;;;;;28.67;19.70;;;;;;;9.19;100.00;96911.56;5055901;28;20044;-77
2022/10/12 03:41:04;;;;;;;28.87;21.20;;;;;;;9.19;100.00;96912.38;5070152;28;20058;-77
2022/10/12 03:43:30;;;;;;;31.97;18.83;;;;;;;9.23;100.00;96906.88;5071138;28;20044;-77
2022/10/12 03:45:55;;;;;;;32.67;23.97;;;;;;;9.24;100.00;96904.09;5068262;28;20032;-77
2022/10/12 03:48:21;;;;;;;36.13;25.97;;;;;;;9.24;100.00;96911.16;5068661;28;20096;-77
2022/10/12 03:50:48;;;;;;;30.23;22.00;;;;;;;9.25;100.00;96910.19;5070106;28;20407;-77
2022/10/12 03:53:14;;;;;;;28.47;19.97;;;;;;;9.25;100.00;96916.25;5070014;28;20028;-77
2022/10/12 03:55:40;;;;;;;29.23;18.83;;;;;;;9.28;100.00;96913.38;5050020;28;20390;-77
2022/10/12 03:58:06;;;;;;;27.47;18.77;;;;;;;9.24;100.00;96914.59;5068887;28;20027;-77
2022/10/12 04:00:31;;;;;;;24.73;17.33;;;;;;;9.26;100.00;96925.81;5057434;28;20071;-77
2022/10/12 04:02:57;;;;;;;26.33;18.10;;;;;;;9.29;100.00;96916.81;5069616;28;20032;-77
2022/10/12 04:05:23;;;;;;;25.67;19.60;;;;;;;9.25;100.00;96921.50;5060600;28;20028;-77
2022/10/12 04:07:48;;;;;;;24.70;18.80;;;;;;;9.27;100.00;96924.00;5071262;28;20041;-77
2022/10/12 04:10:14;;;;;;;29.27;20.13;;;;;;;9.28;100.00;96930.91;5069184;28;20080;-76
2022/10/12 04:12:39;;;;;;;31.00;22.57;;;;;;;9.24;100.00;96925.09;5053673;28;20036;-77
2022/10/12 04:15:06;;;;;;;33.77;25.60;;;;;;;9.24;100.00;96919.03;5069324;28;20036;-77
2022/10/12 04:17:31;;;;;;;30.43;22.50;;;;;;;9.23;100.00;96923.44;5061489;28;20122;-75
2022/10/12 04:19:57;;;;;;;27.87;20.67;;;;;;;9.19;100.00;96919.44;5053342;28;20040;-77
2022/10/12 04:22:23;;;;;;;30.60;19.93;;;;;;;9.13;100.00;96912.09;5070118;28;20029;-77
2022/10/12 04:24:49;;;;;;;27.00;18.87;;;;;;;9.11;100.00;96917.47;5042309;28;20078;-77
2022/10/12 04:27:15;;;;;;;27.47;19.63;;;;;;;9.09;100.00;96921.19;5050640;28;20036;-77
2022/10/12 04:29:41;;;;;;;28.97;18.33;;;;;;;9.09;100.00;96926.44;5051258;28;20166;-77
2022/10/12 04:32:07;;;;;;;30.23;20.00;;;;;;;8.98;100.00;96924.72;5066029;28;20500;-76
2022/10/12 04:34:34;;;;;;;25.27;18.13;;;;;;;8.93;100.00;96921.69;5058316;28;20025;-76
2022/10/12 04:37:00;;;;;;;27.23;18.40;;;;;;;8.95;100.00;96919.75;5057100;28;20032;-76
2022/10/12 04:39:26;;;;;;;26.50;17.90;;;;;;;8.84;100.00;96922.47;5082032;28;20372;-77
2022/10/12 04:41:52;;;;;;;28.73;18.53;;;;;;;8.74;100.00;96923.25;5051556;28;20039;-77
2022/10/12 04:44:17;;;;;;;26.90;18.43;;;;;;;8.73;100.00;96921.59;5065353;28;20032;-77
2022/10/12 04:46:43;;;;;;;41.17;20.10;;;;;;;8.73;100.00;96920.78;5071593;28;20032;-77
2022/10/12 04:49:08;;;;;;;40.03;20.27;;;;;;;8.69;100.00;96922.81;5069879;28;20028;-76
2022/10/12 04:51:34;;;;;;;136.53;24.63;;;;;;;8.64;100.00;96917.13;5054359;28;20059;-77
2022/10/12 04:54:00;;;;;;;36.73;20.87;;;;;;;8.67;100.00;96923.91;5065430;28;20030;-77
2022/10/12 04:56:26;;;;;;;75.97;21.57;;;;;;;8.63;100.00;96925.97;5060030;28;20035;-76
2022/10/12 04:58:51;;;;;;;64.13;21.50;;;;;;;8.58;100.00;96924.69;5070465;28;20037;-77
2022/10/12 05:01:17;;;;;;;88.73;22.87;;;;;;;8.57;100.00;96928.28;5071610;28;20041;-77
2022/10/12 05:03:43;;;;;;;233.10;27.40;;;;;;;8.40;100.00;96929.69;5071424;28;20478;-77
2022/10/12 05:06:09;;;;;;;108.37;23.83;;;;;;;8.46;100.00;96931.81;5069033;28;20055;-77
2022/10/12 05:08:34;;;;;;;99.10;24.13;;;;;;;8.50;100.00;96938.44;5066166;28;20453;-77
2022/10/12 05:11:00;;;;;;;73.77;23.37;;;;;;;8.44;100.00;96931.09;5062883;28;20063;-77
2022/10/12 05:13:27;;;;;;;71.53;25.03;;;;;;;8.47;100.00;96931.66;5063471;28;20021;-77
2022/10/12 05:15:53;;;;;;;178.37;28.60;;;;;;;8.37;100.00;96929.91;5070720;28;20127;-77
2022/10/12 05:18:19;;;;;;;250.53;31.43;;;;;;;8.32;100.00;96932.94;5069567;28;20119;-76
2022/10/12 05:20:45;;;;;;;157.43;25.87;;;;;;;8.32;100.00;96927.69;5069312;28;20079;-77
2022/10/12 05:23:11;;;;;;;128.57;26.30;;;;;;;8.29;100.00;96933.19;5068763;28;20032;-77
2022/10/12 05:25:37;;;;;;;101.13;26.53;;;;;;;8.27;100.00;96937.72;5068624;28;20035;-76
2022/10/12 05:28:03;;;;;;;60.10;25.90;;;;;;;8.27;100.00;96933.28;5070559;28;20028;-77
2022/10/12 05:30:29;;;;;;;69.60;22.53;;;;;;;8.29;100.00;96940.22;5063668;28;20093;-77
2022/10/12 05:32:55;;;;;;;49.37;23.03;;;;;;;8.40;100.00;96942.81;5052569;28;20032;-77
2022/10/12 05:35:21;;;;;;;81.97;23.87;;;;;;;8.44;100.00;96941.56;5068618;28;20089;-77
2022/10/12 05:37:46;;;;;;;33.80;22.73;;;;;;;8.43;100.00;96942.53;5067123;28;20032;-77
2022/10/12 05:40:12;;;;;;;66.57;24.63;;;;;;;8.35;100.00;96944.94;5060058;28;20557;-77
2022/10/12 05:42:38;;;;;;;29.57;22.20;;;;;;;8.36;100.00;96934.34;5067826;28;20544;-77
2022/10/12 05:45:04;;;;;;;32.07;22.13;;;;;;;8.47;100.00;96941.31;5069665;28;20024;-76
2022/10/12 05:47:30;;;;;;;71.33;23.30;;;;;;;8.40;100.00;96945.41;5067487;28;20044;-77
2022/10/12 05:49:55;;;;;;;38.77;22.37;;;;;;;8.38;100.00;96942.09;5050914;28;20021;-77
2022/10/12 05:52:21;;;;;;;40.13;22.77;;;;;;;8.43;100.00;96955.66;5068219;28;20042;-77
2022/10/12 05:54:48;;;;;;;30.33;21.07;;;;;;;8.54;100.00;96955.56;5068211;28;20021;-76
2022/10/12 05:57:14;;;;;;;29.27;22.40;;;;;;;8.50;100.00;96956.78;5069439;28;20033;-77
2022/10/12 05:59:42;;;;;;;27.90;21.63;;;;;;;8.52;100.00;96960.13;5067675;28;20032;-77
2022/10/12 06:02:16;;;;;;;35.50;21.63;;;;;;;8.52;100.00;96957.50;5066622;28;20036;-77
2022/10/12 06:04:41;;;;;;;27.33;21.42;;;;;;;8.48;100.00;96964.81;5068148;28;20036;-77
2022/10/12 06:07:07;;;;;;;27.20;21.23;;;;;;;8.55;100.00;96966.88;5068682;28;20395;-77
2022/10/12 06:09:37;;;;;;;27.33;21.03;;;;;;;8.44;100.00;96963.38;5067837;28;20067;-77
2022/10/12 06:12:04;;;;;;;32.00;22.77;;;;;;;8.50;100.00;96969.91;5068037;28;20029;-77
2022/10/12 06:14:29;;;;;;;29.70;22.27;;;;;;;8.54;100.00;96971.31;5068628;28;20077;-76
2022/10/12 06:16:55;;;;;;;28.23;21.63;;;;;;;8.55;100.00;96967.75;5068951;28;20525;-76
2022/10/12 06:19:21;;;;;;;33.50;23.73;;;;;;;8.62;100.00;96965.44;5067009;28;20063;-77
2022/10/12 06:21:47;;;;;;;29.67;21.80;;;;;;;8.58;100.00;96970.06;5068843;28;20032;-77
2022/10/12 06:24:12;;;;;;;36.20;23.27;;;;;;;8.71;100.00;96969.88;5059306;28;20032;-77
2022/10/12 06:26:38;;;;;;;32.20;22.67;;;;;;;8.72;100.00;96967.16;5068284;28;20056;-77
2022/10/12 06:29:03;;;;;;;33.50;23.37;;;;;;;8.86;100.00;96967.78;5068424;28;20647;-77
2022/10/12 06:31:31;;;;;;;35.30;22.60;;;;;;;8.89;100.00;96962.25;5068688;28;20509;-77
2022/10/12 06:33:56;;;;;;;32.97;24.00;;;;;;;9.02;100.00;96957.63;5064003;28;20025;-76
2022/10/12 06:36:22;;;;;;;33.23;23.23;;;;;;;9.03;100.00;96968.94;5053844;28;20485;-77
2022/10/12 06:38:48;;;;;;;34.57;24.90;;;;;;;9.14;100.00;96964.44;5067663;28;20547;-77
2022/10/12 06:41:14;;;;;;;36.07;24.50;;;;;;;9.21;100.00;96970.81;5067425;28;20372;-77
2022/10/12 06:43:40;;;;;;;34.60;23.93;;;;;;;9.36;100.00;96978.34;5051059;28;20135;-77
2022/10/12 06:46:05;;;;;;;36.00;24.77;;;;;;;9.34;100.00;96975.81;5048347;28;20036;-77
2022/10/12 06:48:31;;;;;;;35.13;23.23;;;;;;;9.35;100.00;96974.03;5050567;28;20564;-77
2022/10/12 06:50:57;;;;;;;36.30;23.80;;;;;;;9.54;100.00;96973.25;5068449;28;20024;-77
2022/10/12 06:53:24;;;;;;;36.70;24.37;;;;;;;9.61;100.00;96974.38;5067932;28;20036;-77
2022/10/12 06:55:50;;;;;;;34.60;24.37;;;;;;;9.68;100.00;96965.00;5065171;28;20028;-77
2022/10/12 06:58:15;;;;;;;34.70;25.43;;;;;;;9.87;100.00;96972.91;5074208;28;20498;-77
2022/10/12 07:00:41;;;;;;;42.47;26.37;;;;;;;10.20;100.00;96976.13;5070652;28;20033;-78
2022/10/12 07:03:11;;;;;;;35.00;24.10;;;;;;;10.27;100.00;96973.78;5071444;28;20296;-78
2022/10/12 07:05:37;;;;;;;29.20;22.27;;;;;;;10.24;100.00;96977.50;5060356;28;20063;-78
2022/10/12 07:08:03;;;;;;;30.10;21.37;;;;;;;10.47;100.00;96975.44;5071370;28;20048;-77
2022/10/12 07:10:29;;;;;;;35.67;23.73;;;;;;;10.76;100.00;96971.91;5062795;28;20487;-78
2022/10/12 07:12:54;;;;;;;33.03;21.83;;;;;;;10.69;100.00;96970.81;5065428;28;20048;-77
2022/10/12 07:15:20;;;;;;;26.93;20.63;;;;;;;10.62;100.00;96970.56;5068351;28;20579;-77
2022/10/12 07:17:46;;;;;;;31.93;22.23;;;;;;;10.59;100.00;96968.19;5066215;28;20431;-77
2022/10/12 07:20:12;;;;;;;27.37;20.60;;;;;;;10.70;100.00;96962.81;5067585;28;20032;-77
2022/10/12 07:22:38;;;;;;;24.97;18.47;;;;;;;10.79;100.00;96961.09;5068041;28;20052;-77
2022/10/12 07:25:04;;;;;;;29.77;19.90;;;;;;;10.93;100.00;96958.03;5066506;28;20060;-77
2022/10/12 07:27:29;;;;;;;27.33;19.57;;;;;;;10.92;100.00;96958.97;5065718;28;20082;-77
2022/10/12 07:29:55;;;;;;;26.03;20.33;;;;;;;11.64;100.00;96956.59;5065608;28;20032;-76
2022/10/12 07:32:21;;;;;;;27.20;20.20;;;;;;;11.86;100.00;96943.00;5061423;28;20043;-77
2022/10/12 07:34:46;;;;;;;31.00;20.53;;;;;;;11.74;100.00;96941.56;5064360;28;20044;-76
2022/10/12 07:37:12;;;;;;;28.57;20.20;;;;;;;11.67;100.00;96946.59;5065500;28;20024;-77
2022/10/12 07:39:40;;;;;;;25.33;19.30;;;;;;;11.72;100.00;96940.84;5066458;28;20032;-77
2022/10/12 07:42:06;;;;;;;27.57;19.03;;;;;;;11.78;100.00;96942.91;5067557;28;20060;-77
2022/10/12 07:44:32;;;;;;;30.30;23.53;;;;;;;11.86;100.00;96945.63;5058311;28;20028;-77
2022/10/12 07:46:57;;;;;;;29.53;21.77;;;;;;;11.96;100.00;96940.31;5065900;28;20463;-77
2022/10/12 07:49:23;;;;;;;27.97;20.50;;;;;;;13.19;100.00;96923.50;5066548;28;20129;-77
2022/10/12 07:51:49;;;;;;;25.43;18.63;;;;;;;13.87;100.00;96906.72;5066262;28;20035;-77
2022/10/12 07:54:15;;;;;;;25.63;18.77;;;;;;;14.49;100.00;96900.94;5066639;28;20040;-77
2022/10/12 07:56:41;;;;;;;23.43;17.80;;;;;;;15.43;100.00;96883.47;5052335;28;20036;-77
2022/10/12 07:59:07;;;;;;;21.75;16.58;;;;;;;15.78;100.00;96885.59;5067369;28;20032;-77
2022/10/12 08:01:33;;;;;;;22.00;16.58;;;;;;;16.15;100.00;96877.88;5073062;28;20040;-77
2022/10/12 08:03:59;;;;;;;19.17;15.40;;;;;;;15.96;100.00;96884.47;5070411;28;20029;-77
2022/10/12 08:06:27;;;;;;;24.58;17.50;;;;;;;14.28;100.00;96904.91;5067144;28;20441;-76
2022/10/12 08:08:53;;;;;;;20.85;17.23;;;;;;;14.22;100.00;96915.31;5065506;28;20153;-76
2022/10/12 08:11:20;;;;;;;24.05;17.30;;;;;;;13.90;100.00;96916.97;5067301;28;20135;-76
2022/10/12 08:13:46;;;;;;;29.65;20.80;;;;;;;14.05;100.00;96919.78;5066607;28;20511;-76
2022/10/12 08:16:15;;;;;;;25.15;18.10;;;;;;;14.18;100.00;96911.38;5063123;28;20064;-77
2022/10/12 08:18:41;;;;;;;24.98;18.73;;;;;;;13.73;100.00;96917.94;5046102;28;20044;-76
2022/10/12 08:21:08;;;;;;;21.27;17.27;;;;;;;13.60;100.00;96916.56;5048054;28;20791;-76
2022/10/12 08:23:34;;;;;;;22.95;17.63;;;;;;;13.89;100.00;96924.06;5048401;28;20036;-76
2022/10/12 08:26:00;;;;;;;21.10;17.05;;;;;;;13.69;100.00;96920.06;5054881;28;20050;-76
2022/10/12 08:28:26;;;;;;;21.23;16.27;;;;;;;14.07;100.00;96918.63;5068544;28;20036;-76
2022/10/12 08:30:52;;;;;;;23.38;17.70;;;;;;;13.64;100.00;96917.06;5068068;28;20029;-76
2022/10/12 08:33:18;;;;;;;21.92;16.77;;;;;;;13.99;100.00;96917.81;5069982;28;20502;-76
2022/10/12 08:35:46;;;;;;;26.50;18.83;;;;;;;13.91;100.00;96923.91;5067155;28;20215;-76
2022/10/12 08:38:13;;;;;;;23.42;17.92;;;;;;;14.85;100.00;96907.53;5057976;28;20107;-76
2022/10/12 08:41:02;;;;;;;23.45;17.63;;;;;;;15.63;100.00;96900.59;5068782;28;20047;-76
2022/10/12 08:44:01;;;;;;;23.08;17.42;;;;;;;15.67;100.00;96901.91;5079636;28;20036;-76
2022/10/12 08:46:27;;;;;;;24.10;17.83;;;;;;;15.31;100.00;96898.91;5066152;28;20020;-76
2022/10/12 08:49:26;;;;;;;23.05;18.17;;;;;;;14.45;100.00;96908.38;5048864;28;20044;-76
2022/10/12 08:51:55;;;;;;;24.15;16.42;;;;;;;14.45;100.00;96911.03;5036505;28;20117;-77
2022/10/12 08:54:31;;;;;;;24.45;17.55;;;;;;;14.96;100.00;96897.56;5068538;28;20243;-77
2022/10/12 08:56:57;;;;;;;25.17;18.10;;;;;;;14.17;100.00;96909.72;5068657;28;20039;-76
2022/10/12 08:59:24;;;;;;;20.63;15.55;;;;;;;14.56;100.00;96897.50;5068226;28;20017;-76
2022/10/12 09:02:24;;;;;;;22.60;16.95;;;;;;;14.46;100.00;96912.69;5066584;28;20036;-76
2022/10/12 09:05:00;;;;;;;26.13;18.05;;;;;;;14.53;100.00;96912.88;5052270;28;20039;-78
2022/10/12 09:07:36;;;;;;;26.45;19.20;;;;;;;14.67;100.00;96916.66;5065510;28;20020;-76
2022/10/12 09:10:22;;;;;;;23.45;19.55;;;;;;;14.50;100.00;96903.44;5061562;28;20032;-76
2022/10/12 09:13:05;;;;;;;28.77;23.45;;;;;;;14.17;100.00;96915.84;5049338;28;20048;-76
2022/10/12 09:15:53;;;;;;;29.00;20.45;;;;;;;14.54;100.00;96906.59;5068658;28;20032;-76
2022/10/12 09:18:32;;;;;;;28.33;19.20;;;;;;;14.45;100.00;96902.25;5062164;28;20048;-76
2022/10/12 09:20:58;;;;;;;23.17;18.27;;;;;;;14.72;100.00;96906.38;5068102;28;20032;-75
2022/10/12 09:23:29;;;;;;;26.77;18.65;;;;;;;14.48;100.00;96904.56;5068607;28;20032;-76
2022/10/12 09:26:16;;;;;;;29.25;19.20;;;;;;;14.52;100.00;96901.47;5068205;28;20036;-76
2022/10/12 09:28:47;;;;;;;24.80;18.08;;;;;;;14.83;100.00;96900.75;5067701;28;20539;-76
2022/10/12 09:31:28;;;;;;;22.23;17.20;;;;;;;15.08;100.00;96901.50;5068216;28;20039;-76
2022/10/12 09:33:58;;;;;;;24.55;17.90;;;;;;;15.13;100.00;96898.34;5068318;28;20118;-76
2022/10/12 09:36:37;;;;;;;25.48;19.35;;;;;;;14.50;100.00;96905.25;5068023;28;20029;-76
2022/10/12 09:39:18;;;;;;;24.15;18.60;;;;;;;14.93;100.00;96905.88;5066279;28;20025;-76
2022/10/12 09:41:46;;;;;;;21.27;16.73;;;;;;;15.33;100.00;96895.09;5069422;28;20041;-76
2022/10/12 09:44:45;;;;;;;27.42;19.15;;;;;;;14.82;100.00;96910.53;5068594;28;20039;-76
2022/10/12 09:47:22;;;;;;;25.45;17.73;;;;;;;14.60;100.00;96913.88;5060336;28;20056;-76
2022/10/12 09:49:50;;;;;;;22.05;16.88;;;;;;;15.02;100.00;96908.31;5059010;28;20533;-76
2022/10/12 09:52:22;;;;;;;21.50;16.45;;;;;;;15.13;100.00;96904.47;5069708;28;20024;-77
2022/10/12 09:54:52;;;;;;;21.27;15.75;;;;;;;15.50;100.00;96895.84;5067811;28;20542;-76
2022/10/12 09:57:24;;;;;;;25.85;17.90;;;;;;;15.10;100.00;96899.50;5067482;28;20541;-76
2022/10/12 09:59:50;;;;;;;18.15;13.73;;;;;;;15.11;100.00;96900.34;5069155;28;20130;-77
2022/10/12 10:02:25;;;;;;;27.63;18.27;;;;;;;15.25;100.00;96895.13;5047070;28;20495;-77
2022/10/12 10:04:52;;;;;;;22.80;15.65;;;;;;;15.11;100.00;96895.84;5059344;28;20853;-77
2022/10/12 10:07:34;;;;;;;23.02;14.65;;;;;;;15.17;100.00;96895.16;5068184;28;20032;-76
2022/10/12 10:10:07;;;;;;;23.17;12.73;;;;;;;15.55;100.00;96895.31;5067693;28;20032;-77
2022/10/12 10:12:47;;;;;;;22.90;13.13;;;;;;;15.28;100.00;96900.09;5067910;28;20619;-77
2022/10/12 10:15:23;;;;;;;25.02;14.02;;;;;;;15.28;100.00;96896.63;5068708;28;20079;-76
2022/10/12 10:17:53;;;;;;;24.98;13.65;;;;;;;15.33;100.00;96899.59;5066787;28;20047;-77
2022/10/12 10:20:31;;;;;;;17.05;12.43;;;;;;;15.26;100.00;96904.75;5068606;28;20627;-76
2022/10/12 10:22:58;;;;;;;18.17;13.45;;;;;;;15.36;100.00;96903.69;5064920;28;20036;-76
2022/10/12 10:25:24;;;;;;;21.02;14.15;;;;;;;15.42;100.00;96901.19;5068647;28;20047;-76
2022/10/12 10:28:09;;;;;;;19.98;13.63;;;;;;;15.27;100.00;96894.97;5066920;28;20104;-76
2022/10/12 10:30:35;;;;;;;25.20;14.00;;;;;;;15.27;100.00;96894.97;5065115;28;20040;-77
2022/10/12 10:33:28;;;;;;;19.13;12.52;;;;;;;15.23;100.00;96899.78;5066886;28;20108;-76
2022/10/12 10:36:17;;;;;;;15.77;9.20;;;;;;;15.38;100.00;96901.72;5066081;28;20087;-77
2022/10/12 10:38:58;;;;;;;21.17;12.02;;;;;;;15.38;100.00;96907.00;5059534;28;20040;-77
2022/10/12 10:41:32;;;;;;;19.48;12.40;;;;;;;15.20;100.00;96900.13;5065344;28;20036;-76
2022/10/12 10:43:58;;;;;;;15.73;10.52;;;;;;;15.36;100.00;96893.94;5060553;28;20043;-76
2022/10/12 10:46:28;;;;;;;19.02;11.07;;;;;;;15.17;100.00;96900.47;5066989;28;20033;-76
2022/10/12 10:49:05;;;;;;;15.98;10.80;;;;;;;15.21;100.00;96900.94;5065496;28;20138;-76
2022/10/12 10:51:53;;;;;;;18.88;12.15;;;;;;;15.25;100.00;96900.44;5066898;28;20036;-76
2022/10/12 10:54:22;;;;;;;14.75;10.02;;;;;;;15.17;100.00;96892.53;5061335;28;20033;-76
2022/10/12 10:56:55;;;;;;;17.90;10.48;;;;;;;15.27;100.00;96901.09;5067800;28;20079;-76
2022/10/12 10:59:29;;;;;;;20.63;11.55;;;;;;;15.42;100.00;96893.22;5067557;28;20024;-77
2022/10/12 11:01:59;;;;;;;19.30;10.48;;;;;;;15.42;100.00;96887.94;5049262;28;20683;-77
2022/10/12 11:04:25;;;;;;;17.98;11.85;;;;;;;15.32;100.00;96887.31;5059514;28;20036;-76
2022/10/12 11:06:58;;;;;;;17.45;11.38;;;;;;;15.38;100.00;96889.28;5067374;28;20051;-76
2022/10/12 11:09:31;;;;;;;;;;;;;;;15.35;100.00;96888.81;5060144;28;20110;-76
2022/10/12 11:12:06;;;;;;;20.17;11.27;;;;;;;15.56;100.00;96884.56;5068238;28;19912;-76
2022/10/12 11:14:49;;;;;;;23.23;11.77;;;;;;;15.43;100.00;96886.13;5060616;28;20037;-76
2022/10/12 11:17:21;;;;;;;21.40;10.93;;;;;;;15.49;100.00;96883.59;5061704;28;20055;-76
2022/10/12 11:20:02;;;;;;;18.63;10.20;;;;;;;15.50;100.00;96873.81;5064054;28;20036;-76
2022/10/12 11:22:39;;;;;;;19.20;11.30;;;;;;;15.99;100.00;96873.50;5055117;28;20036;-76
2022/10/12 11:25:14;;;;;;;18.10;10.18;;;;;;;15.93;100.00;96866.28;5059258;28;20039;-76
2022/10/12 11:27:41;;;;;;;15.40;9.40;;;;;;;16.20;100.00;96860.44;5064343;28;20036;-77